Time;durP1;ratioP1;P1;durP2;ratioP2;P2;SDS_P1;SDS_P2;PMS_P1;PMS_P2;Temp;Humidity;BMP_temperature;BMP_pressure;BME280_temperature;BME280_humidity;BME280_pressure;Samples;Min_cycle;Max_cycle;Signal;HPM_P1;HPM_P2
2022/12/17 13:06:52;;;;;;;26.48;7.72;;;1.80;99.90;;;;;;6188700;23;20024;-76
2022/12/17 13:09:32;;;;;;;16.88;7.38;;;2.10;99.90;;;;;;6162246;23;20013;-78
2022/12/17 13:12:01;;;;;;;18.98;7.95;;;2.00;99.90;;;;;;6161184;23;20024;-78
2022/12/17 13:14:41;;;;;;;22.52;8.50;;;2.60;99.90;;;;;;6137881;23;20013;-78
2022/12/17 13:17:15;;;;;;;27.27;9.20;;;4.30;99.90;;;;;;6136364;23;20017;-77
2022/12/17 13:19:57;;;;;;;19.80;8.20;;;4.10;99.90;;;;;;6162264;23;20334;-76
2022/12/17 13:22:32;;;;;;;21.27;9.40;;;3.20;99.90;;;;;;6198310;23;20021;-75
2022/12/17 13:25:16;;;;;;;20.48;9.27;;;4.00;99.90;;;;;;6197343;23;20295;-76
2022/12/17 13:27:45;;;;;;;20.60;9.48;;;3.30;99.90;;;;;;6162008;23;20431;-77
2022/12/17 13:30:17;;;;;;;25.65;11.00;;;3.70;99.90;;;;;;6160800;23;20009;-76
2022/12/17 13:33:25;;;;;;;29.90;11.85;;;2.30;99.90;;;;;;6162176;23;20009;-76
2022/12/17 13:36:30;;;;;;;27.10;11.18;;;2.10;99.90;;;;;;6137535;23;20028;-75
2022/12/17 13:39:39;;;;;;;30.08;12.50;;;2.10;99.90;;;;;;6198002;23;20013;-76
2022/12/17 13:42:39;;;;;;;28.10;12.57;;;2.20;99.90;;;;;;6045578;23;20017;-76
2022/12/17 13:45:18;;;;;;;28.63;11.98;;;1.40;99.90;;;;;;6099284;23;20032;-75
2022/12/17 13:47:56;;;;;;;25.50;11.65;;;2.30;99.90;;;;;;6198294;23;20040;-76
2022/12/17 13:50:28;;;;;;;;;;;2.30;99.90;;;;;;6171099;23;20013;-75
2022/12/17 13:53:10;;;;;;;31.42;11.15;;;2.30;99.90;;;;;;6197894;23;19916;-75
2022/12/17 13:55:48;;;;;;;24.92;10.93;;;2.30;99.90;;;;;;6172386;23;20315;-74
2022/12/17 13:58:32;;;;;;;36.00;12.50;;;3.10;99.90;;;;;;6160729;23;20024;-75
2022/12/17 14:01:08;;;;;;;27.38;10.63;;;2.80;99.90;;;;;;6198645;23;20292;-78
2022/12/17 14:03:47;;;;;;;25.40;9.55;;;4.10;99.90;;;;;;6167906;23;20024;-74
2022/12/17 14:06:37;;;;;;;23.77;9.68;;;4.70;99.90;;;;;;6188570;23;20304;-78
2022/12/17 14:09:05;;;;;;;20.02;9.15;;;4.80;99.90;;;;;;6161919;23;20435;-77
2022/12/17 14:15:07;;;;;;;22.48;8.85;;;2.90;99.90;;;;;;6193844;23;20020;-81
2022/12/17 14:19:11;;;;;;;21.50;8.13;;;2.50;99.90;;;;;;6117610;23;20033;-83
2022/12/17 14:22:31;;;;;;;;;;;;;;;;;;;;;
2022/12/17 14:26:27;;;;;;;14.18;7.25;;;1.10;99.90;;;;;;6172952;23;20017;-80
2022/12/17 14:46:54;;;;;;;16.48;8.18;;;3.80;99.90;;;;;;6075156;23;20293;-79
2022/12/17 14:50:14;;;;;;;21.88;8.70;;;4.50;99.90;;;;;;6175443;23;20013;-77
2022/12/17 14:54:34;;;;;;;17.60;7.95;;;1.10;99.90;;;;;;6116924;23;20021;-79
2022/12/17 14:59:09;;;;;;;;;;;;;;;;;;;;;
2022/12/17 15:08:17;;;;;;;;;;;;;;;;;;;;;
2022/12/17 15:11:38;;;;;;;18.10;6.38;;;1.40;99.90;;;;;;5944291;24;20025;-78
2022/12/17 15:15:27;;;;;;;;;;;;;;;;;;;;;
2022/12/17 15:18:37;;;;;;;15.02;6.15;;;1.40;99.90;;;;;;5871181;24;20320;-78
2022/12/17 15:21:10;;;;;;;15.82;5.97;;;4.30;99.90;;;;;;5876294;24;20040;-79
2022/12/17 15:23:43;;;;;;;14.48;5.20;;;2.50;99.90;;;;;;5959731;24;20063;-78
2022/12/17 15:26:14;;;;;;;12.55;5.50;;;4.00;99.90;;;;;;5959171;24;20036;-79
2022/12/17 15:28:43;;;;;;;16.23;5.60;;;4.20;99.90;;;;;;5936914;24;20020;-78
2022/12/17 15:31:14;;;;;;;11.05;5.95;;;2.30;99.90;;;;;;5968867;24;20024;-79
2022/12/17 15:33:50;;;;;;;14.35;5.35;;;3.70;99.90;;;;;;5959891;24;20027;-79
2022/12/17 15:36:23;;;;;;;15.32;5.47;;;4.00;99.90;;;;;;5986663;24;20016;-79
2022/12/17 15:38:51;;;;;;;15.85;4.80;;;4.40;99.90;;;;;;5997362;23;20015;-78
2022/12/17 15:44:08;;;;;;;11.63;5.15;;;5.10;99.90;;;;;;6055691;23;20023;-79
2022/12/17 15:46:36;;;;;;;10.57;5.28;;;2.10;99.90;;;;;;6051005;23;20466;-78
2022/12/17 15:49:13;;;;;;;13.93;5.85;;;3.40;99.90;;;;;;6050634;23;20023;-79
2022/12/17 15:51:59;;;;;;;;;;;;;;;;;;;;;
2022/12/17 15:54:43;;;;;;;16.10;6.25;;;1.40;99.90;;;;;;6093155;23;20013;-78
2022/12/17 15:57:12;;;;;;;31.50;9.65;;;1.70;99.90;;;;;;6138067;23;20017;-79
2022/12/17 15:59:52;;;;;;;32.05;10.35;;;1.60;99.90;;;;;;6199389;23;20024;-78
2022/12/17 16:02:21;;;;;;;22.02;8.40;;;3.50;99.90;;;;;;6144177;23;20013;-79
2022/12/17 16:04:49;;;;;;;21.13;8.52;;;2.90;99.90;;;;;;6188100;23;20318;-78
2022/12/17 16:07:18;;;;;;;19.27;8.88;;;3.20;99.90;;;;;;6173977;23;20017;-79
2022/12/17 16:10:08;;;;;;;15.45;7.22;;;1.40;99.90;;;;;;6197933;23;20013;-78
2022/12/17 16:12:36;;;;;;;17.15;7.20;;;1.60;99.90;;;;;;6138036;23;20025;-79
2022/12/17 16:15:07;;;;;;;17.50;7.60;;;3.90;99.90;;;;;;6163046;23;20017;-80
2022/12/17 16:17:35;;;;;;;21.95;8.40;;;1.10;99.90;;;;;;6162495;23;20021;-79
2022/12/17 16:20:05;;;;;;;17.08;9.07;;;3.50;99.90;;;;;;6189124;23;20013;-79
2022/12/17 16:22:36;;;;;;;19.45;9.65;;;1.10;99.90;;;;;;6139048;23;20044;-79
2022/12/17 16:25:04;;;;;;;;;;;3.40;99.90;;;;;;6138112;23;20021;-79
2022/12/17 16:27:32;;;;;;;;;;;0.80;99.90;;;;;;6139924;23;19916;-79
2022/12/17 16:30:11;;;;;;;22.75;10.15;;;0.60;99.90;;;;;;6138812;23;20206;-77
2022/12/17 16:32:53;;;;;;;23.67;9.52;;;0.50;99.90;;;;;;6173118;23;20009;-78
2022/12/17 16:35:27;;;;;;;20.67;10.15;;;-0.60;99.90;;;;;;6198849;23;20009;-81
2022/12/17 16:37:57;;;;;;;26.60;12.90;;;0.70;99.90;;;;;;6171928;23;20017;-76
2022/12/17 16:50:33;;;;;;;22.10;9.43;;;-1.70;99.90;;;;;;6099449;23;20328;-80
2022/12/17 17:07:39;;;;;;;30.95;13.30;;;-0.30;99.90;;;;;;5959785;23;20324;-80
2022/12/17 17:16:34;;;;;;;;;;;;;;;;;;;;;
2022/12/17 17:29:46;;;;;;;28.70;14.23;;;-1.00;99.90;;;;;;5863238;24;20030;-80
2022/12/17 18:02:08;;;;;;;45.13;17.42;;;-0.10;99.90;;;;;;6247567;22;20327;-78
2022/12/17 18:05:59;;;;;;;;;;;;;;;;;;;;;
2022/12/17 18:10:42;;;;;;;;;;;;;;;;;;;;;
2022/12/17 18:27:09;;;;;;;60.55;24.17;;;1.10;99.90;;;;;;6057028;23;20022;-80
2022/12/17 18:30:21;;;;;;;66.38;26.10;;;2.60;99.90;;;;;;5949198;24;20036;-78
2022/12/17 18:32:59;;;;;;;69.95;26.88;;;1.60;99.90;;;;;;5964970;24;20016;-78
2022/12/17 18:35:30;;;;;;;71.55;28.17;;;0.50;99.90;;;;;;5969167;24;20016;-78
2022/12/17 18:38:02;;;;;;;77.25;28.05;;;-1.50;99.90;;;;;;5961922;24;20024;-78
2022/12/17 18:40:36;;;;;;;73.28;27.90;;;-0.50;99.90;;;;;;5939397;24;20020;-77
2022/12/17 18:43:23;;;;;;;65.15;24.92;;;-0.90;99.90;;;;;;5961416;24;20182;-78
2022/12/17 18:45:54;;;;;;;53.45;20.70;;;0.50;99.90;;;;;;5993191;23;20082;-77
2022/12/17 18:48:35;;;;;;;49.22;19.80;;;1.10;99.90;;;;;;5994744;23;20027;-78
2022/12/17 18:51:05;;;;;;;41.83;16.95;;;1.00;99.90;;;;;;6021384;23;20019;-79
2022/12/17 18:53:36;;;;;;;41.17;15.95;;;-0.50;99.90;;;;;;6184371;23;20028;-79
2022/12/17 18:56:11;;;;;;;44.08;16.25;;;1.00;99.90;;;;;;6226932;23;20023;-79
2022/12/17 18:58:54;;;;;;;49.10;15.85;;;-0.70;99.90;;;;;;6209591;23;20028;-79
2022/12/17 19:01:34;;;;;;;50.40;16.58;;;1.30;99.90;;;;;;6196764;23;20329;-78
2022/12/17 19:04:07;;;;;;;45.15;15.10;;;2.20;99.90;;;;;;6355843;22;20006;-78
2022/12/17 19:06:42;;;;;;;45.85;16.08;;;-0.60;99.90;;;;;;6321316;22;20015;-78
2022/12/17 19:09:21;;;;;;;53.53;17.30;;;1.20;99.90;;;;;;6373495;22;20018;-79
2022/12/17 19:11:50;;;;;;;56.78;18.10;;;1.40;99.90;;;;;;6343486;22;20022;-79
2022/12/17 19:14:20;;;;;;;62.88;19.95;;;-0.60;99.90;;;;;;6319902;22;20049;-80
2022/12/17 19:16:50;;;;;;;65.57;20.48;;;-0.40;99.90;;;;;;6383328;22;20014;-78
2022/12/17 19:19:18;;;;;;;71.38;20.13;;;-0.20;99.90;;;;;;6320294;22;20041;-78
2022/12/17 19:21:46;;;;;;;;;;;-0.20;99.90;;;;;;6319990;22;20284;-79
2022/12/17 19:24:16;;;;;;;67.63;20.52;;;-0.30;99.90;;;;;;6344899;22;19914;-79
2022/12/17 19:26:45;;;;;;;76.18;22.55;;;1.00;99.90;;;;;;6357133;22;20007;-78
2022/12/17 19:29:14;;;;;;;88.18;24.30;;;1.50;99.90;;;;;;6320115;22;20036;-78
2022/12/17 19:31:42;;;;;;;76.50;23.65;;;0.20;99.90;;;;;;6370606;22;20022;-79
2022/12/17 19:34:13;;;;;;;80.13;24.42;;;0.50;99.90;;;;;;6345651;22;20014;-78
2022/12/17 19:36:41;;;;;;;74.03;25.27;;;1.90;99.90;;;;;;6355588;22;20010;-79
2022/12/17 19:39:18;;;;;;;77.10;25.45;;;0.40;99.90;;;;;;6331877;22;20015;-79
2022/12/17 19:41:49;;;;;;;110.82;27.38;;;-0.30;99.90;;;;;;6345759;22;20018;-79
2022/12/17 19:44:18;;;;;;;91.90;25.63;;;0.10;99.90;;;;;;6344449;22;20017;-78
2022/12/17 19:46:47;;;;;;;88.80;27.80;;;2.10;99.90;;;;;;6319055;22;20614;-81
2022/12/17 19:49:15;;;;;;;90.95;28.10;;;1.90;99.90;;;;;;6319939;22;20061;-79
2022/12/17 19:51:44;;;;;;;99.45;29.13;;;2.00;99.90;;;;;;6343776;22;20018;-80
2022/12/17 19:54:13;;;;;;;99.95;30.05;;;-0.40;99.90;;;;;;6339966;22;20517;-79
2022/12/17 19:56:44;;;;;;;100.50;28.92;;;1.50;99.90;;;;;;6349627;22;20022;-78
2022/12/17 19:59:12;;;;;;;93.38;29.33;;;2.40;99.90;;;;;;6314051;22;20073;-79
2022/12/17 20:01:44;;;;;;;133.82;33.72;;;1.80;99.90;;;;;;6340561;22;20033;-79
2022/12/17 20:04:13;;;;;;;121.30;33.72;;;-0.40;99.90;;;;;;6313356;22;20015;-79
2022/12/17 20:06:51;;;;;;;127.88;34.30;;;0.20;99.90;;;;;;6350944;22;20017;-80
2022/12/17 20:09:18;;;;;;;138.13;35.00;;;2.20;99.90;;;;;;6340494;22;20029;-81
2022/12/17 20:11:58;;;;;;;131.27;34.45;;;2.30;99.90;;;;;;6339213;22;20454;-81
2022/12/17 20:14:33;;;;;;;142.57;35.67;;;0.90;99.90;;;;;;6326836;22;20033;-81
2022/12/17 20:17:04;;;;;;;153.45;38.05;;;2.80;99.90;;;;;;6349903;22;20285;-81
2022/12/17 20:19:36;;;;;;;140.73;36.83;;;1.50;99.90;;;;;;6341097;22;20025;-81
2022/12/17 20:22:05;;;;;;;181.27;40.50;;;1.50;99.90;;;;;;6350159;22;20307;-81
2022/12/17 20:24:33;;;;;;;150.02;36.47;;;0.70;99.90;;;;;;6313581;22;20011;-80
2022/12/17 20:27:01;;;;;;;135.88;35.50;;;1.90;99.90;;;;;;6340393;22;20026;-81
2022/12/17 20:29:34;;;;;;;139.43;35.95;;;0.20;99.90;;;;;;6341068;22;20014;-81
2022/12/17 20:32:04;;;;;;;141.25;35.55;;;-1.50;99.90;;;;;;6350391;22;20014;-81
2022/12/17 20:34:43;;;;;;;124.90;34.60;;;-0.10;99.90;;;;;;6325747;22;20442;-81
2022/12/17 20:37:14;;;;;;;144.20;37.03;;;2.20;99.90;;;;;;6338365;22;20292;-82
2022/12/17 20:39:48;;;;;;;131.73;35.92;;;1.60;99.90;;;;;;6314319;22;20018;-81
2022/12/17 20:42:27;;;;;;;153.35;37.00;;;1.80;99.90;;;;;;6350760;22;20021;-81
2022/12/17 20:44:57;;;;;;;158.45;38.38;;;1.70;99.90;;;;;;6286821;22;20026;-82
2022/12/17 20:47:28;;;;;;;170.95;41.97;;;-0.40;99.90;;;;;;6351328;22;20426;-81
2022/12/17 20:49:58;;;;;;;163.75;40.80;;;1.20;99.90;;;;;;6348590;22;20011;-81
2022/12/17 20:52:26;;;;;;;167.77;42.38;;;2.80;99.90;;;;;;6344343;22;20026;-81
2022/12/17 20:54:56;;;;;;;151.93;40.08;;;0.60;99.90;;;;;;6371116;22;20033;-81
2022/12/17 20:57:27;;;;;;;152.70;40.55;;;2.20;99.90;;;;;;6293067;22;20034;-81
2022/12/17 20:59:55;;;;;;;153.30;39.38;;;1.30;99.90;;;;;;6319364;22;20014;-81
2022/12/17 21:02:33;;;;;;;144.93;39.95;;;2.40;99.90;;;;;;6319766;22;20025;-81
2022/12/17 21:05:02;;;;;;;155.52;40.20;;;2.30;99.90;;;;;;6343963;22;20011;-81
2022/12/17 21:07:33;;;;;;;149.57;40.20;;;2.00;99.90;;;;;;6345031;22;20296;-81
2022/12/17 21:10:01;;;;;;;138.43;38.28;;;2.50;99.90;;;;;;6344096;22;20006;-81
2022/12/17 21:13:27;;;;;;;146.77;38.70;;;1.90;99.90;;;;;;6345784;22;20010;-81
2022/12/17 21:15:19;;;;;;;135.93;36.85;;;2.20;99.90;;;;;;6344717;22;20033;-81
2022/12/17 21:17:49;;;;;;;140.70;37.75;;;1.90;99.90;;;;;;6328931;22;20014;-81
2022/12/17 21:20:20;;;;;;;143.63;39.75;;;2.10;99.90;;;;;;6318337;22;20018;-81
2022/12/17 21:22:48;;;;;;;144.10;38.13;;;1.40;99.90;;;;;;6319106;22;20315;-81
2022/12/17 21:25:16;;;;;;;135.00;38.55;;;2.30;99.90;;;;;;6370986;22;20017;-81
2022/12/17 21:27:44;;;;;;;138.27;37.67;;;0.10;99.90;;;;;;6318989;22;20442;-80
2022/12/17 21:30:14;;;;;;;129.73;37.67;;;-1.00;99.90;;;;;;6317414;22;20029;-81
2022/12/17 21:32:42;;;;;;;130.15;36.45;;;-0.10;99.90;;;;;;6318801;22;20014;-81
2022/12/17 21:35:10;;;;;;;135.23;37.20;;;0.00;99.90;;;;;;6344775;22;20018;-80
2022/12/17 21:37:38;;;;;;;124.85;35.85;;;-0.20;99.90;;;;;;6317952;22;20022;-81
2022/12/17 21:40:08;;;;;;;133.68;38.17;;;1.80;99.90;;;;;;6345388;22;20292;-79
2022/12/17 21:45:21;;;;;;;151.05;41.08;;;-1.90;99.90;;;;;;6381216;22;20010;-79
2022/12/17 21:47:50;;;;;;;139.80;39.08;;;;;;;;;;6355585;22;20426;-79
2022/12/17 21:50:18;;;;;;;144.27;39.55;;;-0.40;99.90;;;;;;6343404;22;20033;-79
2022/12/17 21:52:45;;;;;;;148.95;38.45;;;1.80;99.90;;;;;;6344174;22;20411;-79
2022/12/17 21:55:13;;;;;;;136.15;36.88;;;-1.00;99.90;;;;;;6318994;22;20026;-79
2022/12/17 21:57:41;;;;;;;146.48;40.03;;;-0.50;99.90;;;;;;6381302;22;20026;-79
2022/12/17 22:00:09;;;;;;;149.38;40.28;;;-1.30;99.90;;;;;;6318477;22;20024;-79
2022/12/17 22:02:37;;;;;;;146.38;38.80;;;-0.70;99.90;;;;;;6344468;22;20014;-80
2022/12/17 22:05:05;;;;;;;143.40;38.50;;;1.50;99.90;;;;;;6317446;22;20010;-80
2022/12/17 22:07:33;;;;;;;142.82;39.45;;;-0.80;99.90;;;;;;6355325;22;20010;-79
2022/12/17 22:10:12;;;;;;;145.32;40.35;;;1.70;99.90;;;;;;6330172;22;20011;-80
2022/12/17 22:16:06;;;;;;;154.43;38.22;;;-0.80;99.90;;;;;;6280524;22;19933;-80
2022/12/17 22:18:34;;;;;;;179.70;43.05;;;-1.00;99.90;;;;;;6280183;22;20015;-79
2022/12/17 22:21:02;;;;;;;;;;;1.20;99.90;;;;;;6287597;22;20445;-79
2022/12/17 22:23:30;;;;;;;168.63;41.08;;;;;;;;;;6343233;22;19925;-79
2022/12/17 22:25:58;;;;;;;183.93;43.85;;;-1.00;99.90;;;;;;6328458;22;20303;-80
2022/12/17 22:28:28;;;;;;;180.85;41.70;;;2.30;99.90;;;;;;6344639;22;20011;-80
2022/12/17 22:33:51;;;;;;;181.55;41.25;;;-0.60;99.90;;;;;;6286764;22;20015;-80
2022/12/17 22:36:39;;;;;;;179.25;41.83;;;1.20;99.90;;;;;;6382412;22;20319;-80
2022/12/17 22:39:35;;;;;;;164.70;39.72;;;1.20;99.90;;;;;;6345220;22;20411;-80
2022/12/17 22:45:30;;;;;;;181.95;41.15;;;1.10;99.90;;;;;;6373890;22;20018;-80
2022/12/17 22:47:58;;;;;;;189.48;42.80;;;1.30;99.90;;;;;;6384331;22;20025;-80
2022/12/17 22:50:26;;;;;;;182.80;44.28;;;0.40;99.90;;;;;;6345686;22;20439;-80
2022/12/17 22:53:04;;;;;;;190.20;44.85;;;1.00;99.90;;;;;;6352999;22;20419;-80
2022/12/17 22:55:33;;;;;;;189.65;43.55;;;-1.00;99.90;;;;;;6346439;22;20018;-80
2022/12/17 22:58:01;;;;;;;170.40;40.95;;;1.40;99.90;;;;;;6355298;22;20022;-80
2022/12/17 23:00:31;;;;;;;189.43;43.25;;;-0.70;99.90;;;;;;6320958;22;20429;-78
2022/12/17 23:03:00;;;;;;;179.05;40.38;;;0.90;99.90;;;;;;6346107;22;20018;-78
2022/12/17 23:05:28;;;;;;;178.30;40.35;;;1.30;99.90;;;;;;6343499;22;20017;-79
2022/12/17 23:07:56;;;;;;;177.68;38.58;;;-0.90;99.90;;;;;;6320549;22;20014;-78
2022/12/17 23:10:25;;;;;;;181.02;39.92;;;-1.20;99.90;;;;;;6372460;22;20437;-79
2022/12/17 23:12:54;;;;;;;157.75;36.97;;;-1.00;99.90;;;;;;6345917;22;20018;-79
2022/12/17 23:15:35;;;;;;;169.88;38.47;;;-0.60;99.90;;;;;;6346815;22;20019;-80
2022/12/17 23:18:05;;;;;;;163.70;38.47;;;-0.80;99.90;;;;;;6383168;22;20014;-79
2022/12/17 23:20:33;;;;;;;165.13;37.42;;;1.30;99.90;;;;;;6294704;22;20025;-79
2022/12/17 23:23:01;;;;;;;149.00;36.38;;;-0.40;99.90;;;;;;6346353;22;20010;-78
2022/12/17 23:25:29;;;;;;;148.77;36.20;;;0.80;99.90;;;;;;6293173;22;20014;-79
2022/12/17 23:27:57;;;;;;;162.27;37.72;;;-0.90;99.90;;;;;;6357565;22;20433;-80
2022/12/17 23:30:25;;;;;;;171.50;37.17;;;1.40;99.90;;;;;;6318627;22;20431;-80
2022/12/17 23:32:53;;;;;;;152.98;36.47;;;-0.90;99.90;;;;;;6372788;22;20018;-79
2022/12/17 23:35:21;;;;;;;158.10;36.83;;;;;;;;;;6345874;22;20393;-79
2022/12/17 23:37:48;;;;;;;156.10;36.40;;;-0.60;99.90;;;;;;6344315;22;20018;-79
2022/12/17 23:40:16;;;;;;;154.57;35.67;;;-0.80;99.90;;;;;;6373321;22;20014;-79
2022/12/17 23:42:43;;;;;;;152.45;35.92;;;-0.60;99.90;;;;;;6346642;22;20018;-79
2022/12/17 23:45:11;;;;;;;147.15;35.35;;;1.20;99.90;;;;;;6371904;22;20036;-80
2022/12/17 23:47:39;;;;;;;;;;;-2.10;99.90;;;;;;6357004;22;20010;-79
2022/12/17 23:50:08;;;;;;;;;;;-0.80;99.90;;;;;;6372617;22;19914;-79
2022/12/17 23:52:36;;;;;;;120.63;31.75;;;-0.60;99.90;;;;;;6339096;22;19926;-79
2022/12/17 23:55:04;;;;;;;136.30;32.97;;;1.10;99.90;;;;;;6352111;22;20419;-78
2022/12/17 23:57:34;;;;;;;127.72;33.17;;;-0.70;99.90;;;;;;6349880;22;20011;-79
